Terminal Aerodrome Forecast
Issued by NWS

Home | Current Version | Previous Version | Text Only | Print | Product List | Glossary On
Versions: 1 2 3 4 5 6 7 8 9 10 11 12 13 14 15 16 17
000
FTUS45 KABQ 280100 AAA
TAFAEG
TAF AMD
KAEG 280115Z 2801/2824 23010KT P6SM VCSH SCT050 BKN100
      TEMPO 2801/2802 VRB15G25KT -SHRA BKN050
     FM280300 11012KT P6SM OVC050
     FM280600 14008KT P6SM OVC040
     FM281500 07005KT P6SM SCT050 BKN100
     FM281800 12007KT P6SM SCT060 BKN120=

USA.gov is the U.S. government's official web portal to all federal, state and local government web resources and services.